createdAt,value
2022-09-10T00:00:24.691Z,100108.53
2022-09-10T00:05:26.099Z,100117.03
2022-09-10T00:10:27.497Z,100114.53
2022-09-10T00:15:28.941Z,100108.94
2022-09-10T00:20:30.470Z,100108.44
2022-09-10T00:25:31.864Z,100103.06
2022-09-10T00:30:33.313Z,100092.59
2022-09-10T00:35:35.334Z,100091.97
2022-09-10T00:40:37.586Z,100084.81
2022-09-10T00:45:39.209Z,100090.81
2022-09-10T00:50:43.654Z,100101.59
2022-09-10T00:55:47.866Z,100099.59
2022-09-10T01:00:52.957Z,100093.81
2022-09-10T01:05:54.783Z,100088.50
2022-09-10T01:11:17.895Z,100090.97
2022-09-10T01:16:28.048Z,100091.47
2022-09-10T01:21:45.418Z,100096.13
2022-09-10T01:27:17.675Z,100100.09
2022-09-10T01:32:41.439Z,100098.13
2022-09-10T01:37:48.772Z,100107.31
2022-09-10T01:42:50.181Z,100099.69
2022-09-10T01:48:21.041Z,100087.22
2022-09-10T01:53:39.406Z,100092.53
2022-09-10T01:58:43.865Z,100079.28
2022-09-10T02:03:47.215Z,100080.75
2022-09-10T02:08:53.362Z,100074.94
2022-09-10T02:13:55.021Z,100072.25
2022-09-10T02:18:58.022Z,100072.28
2022-09-10T02:24:03.770Z,100068.91
2022-09-10T02:29:05.857Z,100060.25
2022-09-10T02:34:07.358Z,100071.38
2022-09-10T02:39:08.961Z,100083.25
2022-09-10T02:44:10.329Z,100080.75
2022-09-10T02:49:11.744Z,100078.94
2022-09-10T02:54:13.155Z,100078.09
2022-09-10T02:59:17.459Z,100079.91
2022-09-10T03:04:18.840Z,100061.47
2022-09-10T03:09:20.622Z,100059.66
2022-09-10T03:14:22.078Z,100061.16
2022-09-10T03:19:23.649Z,100059.81
2022-09-10T03:24:25.074Z,100064.31
2022-09-10T03:29:26.514Z,100069.31
2022-09-10T03:34:28.198Z,100068.13
2022-09-10T03:39:29.609Z,100069.78
2022-09-10T03:44:31.462Z,100058.00
2022-09-10T03:49:32.857Z,100060.63
2022-09-10T03:54:34.259Z,100055.81
2022-09-10T03:59:35.700Z,100060.97
2022-09-10T04:04:37.455Z,100057.00
2022-09-10T04:09:38.877Z,100057.13
2022-09-10T04:14:40.266Z,100057.78
2022-09-10T04:19:41.686Z,100066.13
2022-09-10T04:24:43.062Z,100059.78
2022-09-10T04:29:44.490Z,100054.78
2022-09-10T04:34:45.886Z,100063.09
2022-09-10T04:39:47.370Z,100065.59
2022-09-10T04:44:49.366Z,100065.78
2022-09-10T04:49:50.771Z,100063.75
2022-09-10T04:54:52.182Z,100078.69
2022-09-10T04:59:53.577Z,100082.09
2022-09-10T05:04:54.969Z,100082.59
2022-09-10T05:09:56.422Z,100083.91
2022-09-10T05:14:57.805Z,100092.25
2022-09-10T05:19:59.826Z,100085.88
2022-09-10T05:25:01.734Z,100090.88
2022-09-10T05:30:04.814Z,100086.19
2022-09-10T05:35:09.645Z,100089.16
2022-09-10T05:40:14.227Z,100095.03
2022-09-10T05:45:15.694Z,100095.53
2022-09-10T05:50:17.272Z,100101.88
2022-09-10T05:55:18.938Z,100101.69
2022-09-10T06:00:20.340Z,100116.16
2022-09-10T06:05:21.763Z,100117.28
2022-09-10T06:10:23.187Z,100107.13
2022-09-10T06:15:24.573Z,100111.13
2022-09-10T06:20:25.989Z,100112.09
2022-09-10T06:25:27.483Z,100118.59
2022-09-10T06:30:29.426Z,100121.94
2022-09-10T06:35:30.860Z,100118.56
2022-09-10T06:40:32.312Z,100119.69
2022-09-10T06:45:33.811Z,100113.31
2022-09-10T06:50:35.238Z,100117.69
2022-09-10T06:55:36.698Z,100119.53
2022-09-10T07:00:38.174Z,100125.59
2022-09-10T07:05:39.627Z,100123.41
2022-09-10T07:10:42.267Z,100130.09
2022-09-10T07:15:47.373Z,100129.94
2022-09-10T07:20:49.131Z,100135.09
2022-09-10T07:25:50.574Z,100125.09
2022-09-10T07:30:52.060Z,100137.81
2022-09-10T07:35:53.472Z,100132.75
2022-09-10T07:40:54.934Z,100139.19
2022-09-10T07:45:57.623Z,100139.69
2022-09-10T07:51:04.460Z,100155.19
2022-09-10T07:56:07.672Z,100151.69
2022-09-10T08:01:10.324Z,100155.84
2022-09-10T08:06:11.838Z,100168.19
2022-09-10T08:11:14.753Z,100158.00
2022-09-10T08:16:22.612Z,100164.66
2022-09-10T08:21:24.475Z,100165.56
2022-09-10T08:26:26.505Z,100169.66
2022-09-10T08:31:29.069Z,100180.06
2022-09-10T08:36:30.853Z,100182.34
2022-09-10T08:41:38.266Z,100187.38
2022-09-10T08:46:47.189Z,100185.72
2022-09-10T08:51:53.509Z,100189.31
2022-09-10T08:56:58.204Z,100194.56
2022-09-10T09:02:44.817Z,100198.03
2022-09-10T09:07:44.157Z,100205.47
2022-09-10T09:12:51.477Z,100214.94
2022-09-10T09:18:14.037Z,100219.13
2022-09-10T09:23:24.341Z,100220.44
2022-09-10T09:28:39.378Z,100214.38
2022-09-10T09:33:41.565Z,100207.59
2022-09-10T09:38:47.381Z,100217.16
2022-09-10T09:43:59.269Z,100215.72
2022-09-10T09:49:02.185Z,100209.09
2022-09-10T09:59:32.709Z,100213.19
2022-09-10T10:04:36.988Z,100202.69
2022-09-10T10:09:43.729Z,100200.59
2022-09-10T10:14:46.121Z,100193.31
2022-09-10T10:20:10.394Z,100188.38
2022-09-10T10:25:37.536Z,100182.66
2022-09-10T10:30:39.118Z,100194.72
2022-09-10T10:35:49.973Z,100194.22
2022-09-10T10:41:19.101Z,100195.34
2022-09-10T10:46:38.558Z,100203.25
2022-09-10T10:52:01.961Z,100190.50
2022-09-10T10:57:51.181Z,100191.63
2022-09-10T11:02:55.089Z,100182.97
2022-09-10T11:08:00.458Z,100182.47
2022-09-10T11:13:20.230Z,100175.94
2022-09-10T11:18:32.446Z,100167.28
2022-09-10T11:23:53.266Z,100156.81
2022-09-10T11:29:32.666Z,100161.38
2022-09-10T11:34:58.679Z,100159.44
2022-09-10T11:40:06.071Z,100156.19
2022-09-10T11:45:17.100Z,100156.59
2022-09-10T11:50:34.889Z,100143.72
2022-09-10T11:55:56.060Z,100155.97
2022-09-10T12:01:13.457Z,100147.78
2022-09-10T12:06:21.315Z,100152.94
2022-09-10T12:11:59.419Z,100146.72
2022-09-10T12:17:21.829Z,100151.13
2022-09-10T12:22:39.308Z,100148.84
2022-09-10T12:27:48.518Z,100152.38
2022-09-10T12:32:50.525Z,100147.69
2022-09-10T12:38:30.261Z,100141.75
2022-09-10T12:43:41.059Z,100136.00
2022-09-10T12:48:45.600Z,100136.53
2022-09-10T12:54:24.654Z,100143.28
2022-09-10T12:59:36.871Z,100138.59
2022-09-10T13:04:38.789Z,100146.38
2022-09-10T13:09:40.313Z,100153.63
2022-09-10T13:14:47.577Z,100147.28
2022-09-10T13:19:49.857Z,100153.81
2022-09-10T13:25:03.698Z,100143.75
2022-09-10T13:30:22.918Z,100144.06
2022-09-10T13:35:27.235Z,100146.28
2022-09-10T13:40:50.472Z,100145.59
2022-09-10T13:46:06.723Z,100155.56
2022-09-10T13:51:25.484Z,100161.69
2022-09-10T13:56:28.763Z,100181.22
2022-09-10T14:01:59.386Z,100180.00
2022-09-10T14:07:10.710Z,100175.22
2022-09-10T14:12:13.114Z,100180.72
2022-09-10T14:17:28.963Z,100174.34
2022-09-10T14:22:30.741Z,100173.47
2022-09-10T14:27:37.232Z,100163.78
2022-09-10T14:32:38.785Z,100167.47
2022-09-10T14:37:40.274Z,100152.94
2022-09-10T14:42:41.755Z,100167.63
2022-09-10T14:47:52.054Z,100162.19
2022-09-10T14:52:55.199Z,100159.34
2022-09-10T14:57:57.131Z,100150.97
2022-09-10T15:02:58.550Z,100144.41
2022-09-10T15:07:59.955Z,100138.09
2022-09-10T15:13:01.465Z,100139.22
2022-09-10T15:18:02.897Z,100135.69
2022-09-10T15:23:04.309Z,100142.53
2022-09-10T15:28:06.076Z,100149.06
2022-09-10T15:33:08.116Z,100149.84
2022-09-10T15:38:13.447Z,100152.97
2022-09-10T15:43:14.776Z,100146.88
2022-09-10T15:48:16.149Z,100148.28
2022-09-10T15:53:17.552Z,100152.56
2022-09-10T15:58:18.933Z,100144.75
2022-09-10T16:03:20.310Z,100150.75
2022-09-10T16:08:21.741Z,100150.84
2022-09-10T16:13:23.989Z,100159.63
2022-09-10T16:18:26.729Z,100159.06
2022-09-10T16:23:28.115Z,100164.69
2022-09-10T16:28:29.521Z,100175.59
2022-09-10T16:33:31.431Z,100191.53
2022-09-10T16:38:32.855Z,100184.81
2022-09-10T16:43:36.193Z,100182.31
2022-09-10T16:48:39.777Z,100183.56
2022-09-10T16:53:43.118Z,100185.94
2022-09-10T16:58:48.219Z,100195.25
2022-09-10T17:03:50.925Z,100196.72
2022-09-10T17:08:57.599Z,100179.94
2022-09-10T17:14:00.184Z,100173.63
2022-09-10T17:19:05.765Z,100180.13
2022-09-10T17:24:09.646Z,100175.00
2022-09-10T17:29:13.997Z,100188.22
2022-09-10T17:34:16.337Z,100190.97
2022-09-10T17:39:18.183Z,100189.94
2022-09-10T17:44:19.641Z,100199.31
2022-09-10T17:49:21.184Z,100201.03
2022-09-10T17:54:22.800Z,100209.13
2022-09-10T17:59:24.193Z,100213.00
2022-09-10T18:04:25.703Z,100219.66
2022-09-10T18:09:27.249Z,100217.44
2022-09-10T18:14:28.935Z,100219.00
2022-09-10T18:19:30.361Z,100233.03
2022-09-10T18:24:31.916Z,100241.56
2022-09-10T18:29:33.453Z,100251.06
2022-09-10T18:34:34.927Z,100241.53
2022-09-10T18:39:36.528Z,100236.06
2022-09-10T18:44:38.124Z,100240.59
2022-09-10T18:49:39.551Z,100249.13
2022-09-10T18:54:45.912Z,100251.44
2022-09-10T18:59:47.911Z,100242.81
2022-09-10T19:05:10.120Z,100255.50
2022-09-10T19:10:10.738Z,100258.00
2022-09-10T19:15:12.196Z,100274.50
2022-09-10T19:20:13.751Z,100270.28
2022-09-10T19:25:15.171Z,100274.28
2022-09-10T19:30:16.631Z,100289.13
2022-09-10T19:35:18.033Z,100297.50
2022-09-10T19:40:19.413Z,100302.47
2022-09-10T19:45:20.891Z,100303.13
2022-09-10T19:50:23.451Z,100309.75
2022-09-10T19:55:25.721Z,100313.94
2022-09-10T20:00:45.766Z,100312.03
2022-09-10T20:05:48.203Z,100310.97
2022-09-10T20:10:49.941Z,100315.41
2022-09-10T20:15:51.456Z,100315.31
2022-09-10T20:20:56.469Z,100317.34
2022-09-10T20:26:08.055Z,100315.72
2022-09-10T20:31:11.889Z,100321.25
2022-09-10T20:36:15.969Z,100324.56
2022-09-10T20:41:17.760Z,100327.19
2022-09-10T20:46:21.725Z,100344.06
2022-09-10T20:51:23.278Z,100338.91
2022-09-10T20:56:24.726Z,100335.06
2022-09-10T21:01:27.814Z,100342.59
2022-09-10T21:06:31.918Z,100342.91
2022-09-10T21:11:34.665Z,100343.91
2022-09-10T21:16:38.535Z,100342.97
2022-09-10T21:21:40.858Z,100342.25
2022-09-10T21:26:42.805Z,100347.44
2022-09-10T21:31:44.709Z,100348.59
2022-09-10T21:36:46.489Z,100354.13
2022-09-10T21:41:49.873Z,100360.78
2022-09-10T21:46:52.288Z,100367.00
2022-09-10T21:51:56.533Z,100361.47
2022-09-10T21:56:58.221Z,100369.09
2022-09-10T22:01:59.777Z,100367.09
2022-09-10T22:07:01.249Z,100372.97
2022-09-10T22:12:02.861Z,100372.44
2022-09-10T22:17:04.445Z,100383.78
2022-09-10T22:22:05.878Z,100388.00
2022-09-10T22:27:07.309Z,100387.81
2022-09-10T22:32:08.734Z,100407.50
2022-09-10T22:37:10.312Z,100410.19
2022-09-10T22:42:11.796Z,100424.50
2022-09-10T22:47:13.156Z,100413.84
2022-09-10T22:52:14.588Z,100416.69
2022-09-10T22:57:16.031Z,100416.53
2022-09-10T23:02:17.507Z,100413.50
2022-09-10T23:07:19.003Z,100424.19
2022-09-10T23:12:20.401Z,100434.34
2022-09-10T23:17:22.641Z,100438.53
2022-09-10T23:22:24.216Z,100438.00
2022-09-10T23:27:25.703Z,100436.34
2022-09-10T23:32:27.080Z,100443.84
2022-09-10T23:37:28.521Z,100455.84
2022-09-10T23:42:29.929Z,100468.00
2022-09-10T23:47:31.323Z,100468.19
2022-09-10T23:52:32.750Z,100468.00
2022-09-10T23:57:34.143Z,100477.34
